sensor_id;sensor_type;location;lat;lon;timestamp;P1;durP1;ratioP1;P2;durP2;ratioP2
14698;SDS011;7439;50.804;4.602;2023-01-04T00:02:03;450.63;;;427.83;;
14698;SDS011;7439;50.804;4.602;2023-01-04T00:04:31;476.83;;;452.70;;
14698;SDS011;7439;50.804;4.602;2023-01-04T00:06:58;476.57;;;452.37;;
14698;SDS011;7439;50.804;4.602;2023-01-04T00:09:26;485.37;;;460.33;;
14698;SDS011;7439;50.804;4.602;2023-01-04T00:11:53;485.90;;;460.83;;
14698;SDS011;7439;50.804;4.602;2023-01-04T00:14:20;522.50;;;496.03;;
14698;SDS011;7439;50.804;4.602;2023-01-04T00:16:51;569.80;;;541.00;;
14698;SDS011;7439;50.804;4.602;2023-01-04T00:19:21;638.23;;;605.40;;
14698;SDS011;7439;50.804;4.602;2023-01-04T00:21:49;622.43;;;590.10;;
14698;SDS011;7439;50.804;4.602;2023-01-04T00:24:17;604.63;;;573.83;;
14698;SDS011;7439;50.804;4.602;2023-01-04T00:26:45;617.50;;;585.97;;
14698;SDS011;7439;50.804;4.602;2023-01-04T00:29:12;597.80;;;567.63;;
14698;SDS011;7439;50.804;4.602;2023-01-04T00:31:39;605.37;;;574.67;;
14698;SDS011;7439;50.804;4.602;2023-01-04T00:34:10;614.70;;;583.47;;
14698;SDS011;7439;50.804;4.602;2023-01-04T00:36:39;625.27;;;593.27;;
14698;SDS011;7439;50.804;4.602;2023-01-04T00:39:08;607.50;;;576.47;;
14698;SDS011;7439;50.804;4.602;2023-01-04T00:41:37;636.97;;;604.70;;
14698;SDS011;7439;50.804;4.602;2023-01-04T00:44:05;641.77;;;609.07;;
14698;SDS011;7439;50.804;4.602;2023-01-04T00:46:33;591.10;;;561.03;;
14698;SDS011;7439;50.804;4.602;2023-01-04T00:49:01;616.70;;;585.73;;
14698;SDS011;7439;50.804;4.602;2023-01-04T00:51:30;602.70;;;572.87;;
14698;SDS011;7439;50.804;4.602;2023-01-04T00:53:59;627.23;;;595.93;;
14698;SDS011;7439;50.804;4.602;2023-01-04T00:56:26;619.43;;;588.23;;
14698;SDS011;7439;50.804;4.602;2023-01-04T00:58:54;636.30;;;604.70;;
14698;SDS011;7439;50.804;4.602;2023-01-04T01:01:22;630.00;;;598.60;;
14698;SDS011;7439;50.804;4.602;2023-01-04T01:03:51;624.07;;;592.97;;
14698;SDS011;7439;50.804;4.602;2023-01-04T01:06:19;641.50;;;609.33;;
14698;SDS011;7439;50.804;4.602;2023-01-04T01:08:48;636.43;;;604.93;;
14698;SDS011;7439;50.804;4.602;2023-01-04T01:11:16;661.03;;;628.27;;
14698;SDS011;7439;50.804;4.602;2023-01-04T01:13:43;631.37;;;600.07;;
14698;SDS011;7439;50.804;4.602;2023-01-04T01:16:11;665.80;;;632.53;;
14698;SDS011;7439;50.804;4.602;2023-01-04T01:18:39;669.67;;;635.80;;
14698;SDS011;7439;50.804;4.602;2023-01-04T01:21:07;715.17;;;678.37;;
14698;SDS011;7439;50.804;4.602;2023-01-04T01:23:35;706.93;;;670.40;;
14698;SDS011;7439;50.804;4.602;2023-01-04T01:26:04;683.80;;;648.50;;
14698;SDS011;7439;50.804;4.602;2023-01-04T01:28:32;683.43;;;648.97;;
14698;SDS011;7439;50.804;4.602;2023-01-04T01:31:04;689.87;;;654.73;;
14698;SDS011;7439;50.804;4.602;2023-01-04T01:33:32;688.23;;;653.20;;
14698;SDS011;7439;50.804;4.602;2023-01-04T01:35:59;692.27;;;657.17;;
14698;SDS011;7439;50.804;4.602;2023-01-04T01:38:27;686.27;;;651.27;;
14698;SDS011;7439;50.804;4.602;2023-01-04T01:40:54;691.57;;;656.47;;
14698;SDS011;7439;50.804;4.602;2023-01-04T01:46:05;681.20;;;646.57;;
14698;SDS011;7439;50.804;4.602;2023-01-04T01:48:33;688.77;;;653.67;;
14698;SDS011;7439;50.804;4.602;2023-01-04T01:51:00;670.13;;;636.20;;
14698;SDS011;7439;50.804;4.602;2023-01-04T01:53:29;677.07;;;643.17;;
14698;SDS011;7439;50.804;4.602;2023-01-04T01:55:56;685.60;;;651.30;;
14698;SDS011;7439;50.804;4.602;2023-01-04T01:58:25;681.50;;;647.00;;
14698;SDS011;7439;50.804;4.602;2023-01-04T02:00:54;685.17;;;650.60;;
14698;SDS011;7439;50.804;4.602;2023-01-04T02:03:26;683.30;;;649.00;;
14698;SDS011;7439;50.804;4.602;2023-01-04T02:05:55;664.80;;;631.83;;
14698;SDS011;7439;50.804;4.602;2023-01-04T02:08:23;684.53;;;650.40;;
14698;SDS011;7439;50.804;4.602;2023-01-04T02:10:51;678.87;;;645.37;;
14698;SDS011;7439;50.804;4.602;2023-01-04T02:13:20;677.70;;;644.00;;
14698;SDS011;7439;50.804;4.602;2023-01-04T02:15:52;666.17;;;633.03;;
14698;SDS011;7439;50.804;4.602;2023-01-04T02:18:23;682.13;;;648.23;;
14698;SDS011;7439;50.804;4.602;2023-01-04T02:20:55;692.33;;;657.60;;
14698;SDS011;7439;50.804;4.602;2023-01-04T02:23:42;697.63;;;662.60;;
14698;SDS011;7439;50.804;4.602;2023-01-04T02:31:47;672.77;;;638.77;;
14698;SDS011;7439;50.804;4.602;2023-01-04T02:34:18;685.23;;;651.13;;
14698;SDS011;7439;50.804;4.602;2023-01-04T02:36:52;698.97;;;664.17;;
14698;SDS011;7439;50.804;4.602;2023-01-04T02:39:26;696.07;;;660.97;;
14698;SDS011;7439;50.804;4.602;2023-01-04T02:41:57;694.43;;;659.63;;
14698;SDS011;7439;50.804;4.602;2023-01-04T02:44:31;720.27;;;683.97;;
14698;SDS011;7439;50.804;4.602;2023-01-04T02:47:19;726.30;;;689.50;;
14698;SDS011;7439;50.804;4.602;2023-01-04T02:50:20;710.40;;;674.37;;
14698;SDS011;7439;50.804;4.602;2023-01-04T02:52:56;722.77;;;685.53;;
14698;SDS011;7439;50.804;4.602;2023-01-04T02:55:23;734.20;;;696.53;;
14698;SDS011;7439;50.804;4.602;2023-01-04T02:57:54;737.73;;;699.87;;
14698;SDS011;7439;50.804;4.602;2023-01-04T03:00:27;738.30;;;700.30;;
14698;SDS011;7439;50.804;4.602;2023-01-04T03:03:04;776.87;;;735.63;;
14698;SDS011;7439;50.804;4.602;2023-01-04T03:05:54;769.43;;;729.20;;
14698;SDS011;7439;50.804;4.602;2023-01-04T03:08:48;759.53;;;719.77;;
14698;SDS011;7439;50.804;4.602;2023-01-04T03:11:20;752.93;;;713.43;;
14698;SDS011;7439;50.804;4.602;2023-01-04T03:14:06;740.10;;;701.07;;
14698;SDS011;7439;50.804;4.602;2023-01-04T03:16:35;748.83;;;709.53;;
14698;SDS011;7439;50.804;4.602;2023-01-04T03:19:06;747.37;;;707.67;;
14698;SDS011;7439;50.804;4.602;2023-01-04T03:21:35;748.90;;;710.07;;
14698;SDS011;7439;50.804;4.602;2023-01-04T03:24:03;755.90;;;716.03;;
14698;SDS011;7439;50.804;4.602;2023-01-04T03:26:51;748.77;;;709.07;;
14698;SDS011;7439;50.804;4.602;2023-01-04T03:29:46;750.33;;;710.83;;
14698;SDS011;7439;50.804;4.602;2023-01-04T03:32:36;777.77;;;736.17;;
14698;SDS011;7439;50.804;4.602;2023-01-04T03:35:26;791.53;;;748.60;;
14698;SDS011;7439;50.804;4.602;2023-01-04T03:38:04;785.07;;;742.90;;
14698;SDS011;7439;50.804;4.602;2023-01-04T03:40:49;779.67;;;738.30;;
14698;SDS011;7439;50.804;4.602;2023-01-04T03:43:42;770.27;;;729.20;;
14698;SDS011;7439;50.804;4.602;2023-01-04T03:46:30;772.07;;;730.90;;
14698;SDS011;7439;50.804;4.602;2023-01-04T03:49:17;769.93;;;729.13;;
14698;SDS011;7439;50.804;4.602;2023-01-04T03:51:48;769.53;;;728.03;;
14698;SDS011;7439;50.804;4.602;2023-01-04T03:54:18;759.43;;;718.83;;
14698;SDS011;7439;50.804;4.602;2023-01-04T03:56:47;481.67;;;461.00;;
14698;SDS011;7439;50.804;4.602;2023-01-04T03:59:16;477.63;;;456.63;;
14698;SDS011;7439;50.804;4.602;2023-01-04T04:01:43;494.03;;;472.30;;
14698;SDS011;7439;50.804;4.602;2023-01-04T04:04:11;512.83;;;490.17;;
14698;SDS011;7439;50.804;4.602;2023-01-04T04:06:57;537.97;;;513.90;;
14698;SDS011;7439;50.804;4.602;2023-01-04T04:09:42;588.43;;;562.03;;
14698;SDS011;7439;50.804;4.602;2023-01-04T04:12:10;591.73;;;565.00;;
14698;SDS011;7439;50.804;4.602;2023-01-04T04:14:38;649.83;;;619.60;;
14698;SDS011;7439;50.804;4.602;2023-01-04T04:17:05;651.63;;;621.07;;
14698;SDS011;7439;50.804;4.602;2023-01-04T04:19:33;640.17;;;609.80;;
14698;SDS011;7439;50.804;4.602;2023-01-04T04:22:02;696.57;;;661.83;;
14698;SDS011;7439;50.804;4.602;2023-01-04T04:24:29;707.73;;;671.50;;
14698;SDS011;7439;50.804;4.602;2023-01-04T04:26:56;734.07;;;696.13;;
14698;SDS011;7439;50.804;4.602;2023-01-04T04:29:24;729.80;;;692.07;;
14698;SDS011;7439;50.804;4.602;2023-01-04T04:31:51;748.30;;;709.20;;
14698;SDS011;7439;50.804;4.602;2023-01-04T04:34:19;741.67;;;702.93;;
14698;SDS011;7439;50.804;4.602;2023-01-04T04:36:46;743.73;;;705.03;;
14698;SDS011;7439;50.804;4.602;2023-01-04T04:39:15;742.67;;;704.27;;
14698;SDS011;7439;50.804;4.602;2023-01-04T04:41:43;754.47;;;715.33;;
14698;SDS011;7439;50.804;4.602;2023-01-04T04:44:10;737.77;;;699.40;;
14698;SDS011;7439;50.804;4.602;2023-01-04T04:46:38;734.77;;;696.43;;
14698;SDS011;7439;50.804;4.602;2023-01-04T04:49:05;722.40;;;685.10;;
14698;SDS011;7439;50.804;4.602;2023-01-04T04:51:33;722.97;;;685.00;;
14698;SDS011;7439;50.804;4.602;2023-01-04T04:54:01;708.90;;;671.33;;
14698;SDS011;7439;50.804;4.602;2023-01-04T04:56:30;701.47;;;665.03;;
14698;SDS011;7439;50.804;4.602;2023-01-04T04:58:57;735.23;;;697.03;;
14698;SDS011;7439;50.804;4.602;2023-01-04T05:01:25;726.13;;;688.30;;
14698;SDS011;7439;50.804;4.602;2023-01-04T05:03:52;729.80;;;691.60;;
14698;SDS011;7439;50.804;4.602;2023-01-04T05:06:19;723.63;;;685.70;;
14698;SDS011;7439;50.804;4.602;2023-01-04T05:08:47;693.63;;;657.07;;
14698;SDS011;7439;50.804;4.602;2023-01-04T05:11:14;728.47;;;690.80;;
14698;SDS011;7439;50.804;4.602;2023-01-04T05:14:05;730.53;;;692.53;;
14698;SDS011;7439;50.804;4.602;2023-01-04T05:16:32;722.00;;;684.37;;
14698;SDS011;7439;50.804;4.602;2023-01-04T05:18:59;726.23;;;689.03;;
14698;SDS011;7439;50.804;4.602;2023-01-04T05:21:26;693.47;;;658.37;;
14698;SDS011;7439;50.804;4.602;2023-01-04T05:23:54;672.53;;;638.50;;
14698;SDS011;7439;50.804;4.602;2023-01-04T05:26:21;673.33;;;639.43;;
14698;SDS011;7439;50.804;4.602;2023-01-04T05:28:49;634.67;;;602.50;;
14698;SDS011;7439;50.804;4.602;2023-01-04T05:31:17;611.30;;;580.50;;
14698;SDS011;7439;50.804;4.602;2023-01-04T05:33:44;593.37;;;563.40;;
14698;SDS011;7439;50.804;4.602;2023-01-04T05:36:11;600.93;;;570.43;;
14698;SDS011;7439;50.804;4.602;2023-01-04T05:38:39;615.23;;;584.23;;
14698;SDS011;7439;50.804;4.602;2023-01-04T05:41:06;613.53;;;582.73;;
14698;SDS011;7439;50.804;4.602;2023-01-04T05:43:54;620.97;;;589.97;;
14698;SDS011;7439;50.804;4.602;2023-01-04T05:46:23;612.73;;;582.63;;
14698;SDS011;7439;50.804;4.602;2023-01-04T05:48:51;628.27;;;596.77;;
14698;SDS011;7439;50.804;4.602;2023-01-04T05:51:18;640.00;;;608.00;;
14698;SDS011;7439;50.804;4.602;2023-01-04T05:53:48;640.43;;;608.83;;
14698;SDS011;7439;50.804;4.602;2023-01-04T05:56:17;608.43;;;577.90;;
14698;SDS011;7439;50.804;4.602;2023-01-04T05:58:44;644.40;;;612.43;;
14698;SDS011;7439;50.804;4.602;2023-01-04T06:01:12;609.17;;;578.67;;
14698;SDS011;7439;50.804;4.602;2023-01-04T06:03:41;582.07;;;552.87;;
14698;SDS011;7439;50.804;4.602;2023-01-04T06:06:08;575.53;;;546.80;;
14698;SDS011;7439;50.804;4.602;2023-01-04T06:08:35;554.87;;;527.40;;
14698;SDS011;7439;50.804;4.602;2023-01-04T06:11:03;545.53;;;518.47;;
14698;SDS011;7439;50.804;4.602;2023-01-04T06:13:30;529.20;;;503.13;;
14698;SDS011;7439;50.804;4.602;2023-01-04T06:15:57;500.90;;;476.00;;
14698;SDS011;7439;50.804;4.602;2023-01-04T06:18:25;457.67;;;435.20;;
14698;SDS011;7439;50.804;4.602;2023-01-04T06:20:54;459.97;;;436.80;;
14698;SDS011;7439;50.804;4.602;2023-01-04T06:23:21;453.93;;;431.37;;
14698;SDS011;7439;50.804;4.602;2023-01-04T06:25:48;449.67;;;427.00;;
14698;SDS011;7439;50.804;4.602;2023-01-04T06:28:16;468.77;;;445.50;;
14698;SDS011;7439;50.804;4.602;2023-01-04T06:30:43;470.40;;;447.20;;
14698;SDS011;7439;50.804;4.602;2023-01-04T06:33:10;466.43;;;443.37;;
14698;SDS011;7439;50.804;4.602;2023-01-04T06:35:38;481.30;;;457.07;;
14698;SDS011;7439;50.804;4.602;2023-01-04T06:38:07;455.80;;;432.80;;
14698;SDS011;7439;50.804;4.602;2023-01-04T06:40:34;548.27;;;520.87;;
14698;SDS011;7439;50.804;4.602;2023-01-04T06:43:01;622.50;;;591.33;;
14698;SDS011;7439;50.804;4.602;2023-01-04T06:45:29;666.77;;;632.57;;
14698;SDS011;7439;50.804;4.602;2023-01-04T06:47:56;717.27;;;679.83;;
14698;SDS011;7439;50.804;4.602;2023-01-04T06:50:23;725.03;;;686.63;;
14698;SDS011;7439;50.804;4.602;2023-01-04T06:52:51;743.83;;;703.97;;
14698;SDS011;7439;50.804;4.602;2023-01-04T06:55:20;783.10;;;740.97;;
14698;SDS011;7439;50.804;4.602;2023-01-04T06:57:47;798.93;;;754.97;;
14698;SDS011;7439;50.804;4.602;2023-01-04T07:00:15;780.13;;;737.17;;
14698;SDS011;7439;50.804;4.602;2023-01-04T07:02:42;774.57;;;732.13;;
14698;SDS011;7439;50.804;4.602;2023-01-04T07:05:10;754.07;;;713.57;;
14698;SDS011;7439;50.804;4.602;2023-01-04T07:07:37;779.97;;;736.57;;
14698;SDS011;7439;50.804;4.602;2023-01-04T07:10:05;790.57;;;746.13;;
14698;SDS011;7439;50.804;4.602;2023-01-04T07:12:34;794.47;;;750.00;;
14698;SDS011;7439;50.804;4.602;2023-01-04T07:15:02;810.03;;;764.43;;
14698;SDS011;7439;50.804;4.602;2023-01-04T07:17:29;800.57;;;755.93;;
14698;SDS011;7439;50.804;4.602;2023-01-04T07:19:57;797.10;;;752.70;;
14698;SDS011;7439;50.804;4.602;2023-01-04T07:22:24;796.57;;;752.50;;
14698;SDS011;7439;50.804;4.602;2023-01-04T07:24:52;791.43;;;747.80;;
14698;SDS011;7439;50.804;4.602;2023-01-04T07:27:19;782.07;;;739.17;;
14698;SDS011;7439;50.804;4.602;2023-01-04T07:29:48;756.80;;;715.13;;
14698;SDS011;7439;50.804;4.602;2023-01-04T07:32:15;768.47;;;726.67;;
14698;SDS011;7439;50.804;4.602;2023-01-04T07:34:43;776.13;;;733.57;;
14698;SDS011;7439;50.804;4.602;2023-01-04T07:37:10;750.27;;;709.30;;
14698;SDS011;7439;50.804;4.602;2023-01-04T07:39:39;730.73;;;690.97;;
14698;SDS011;7439;50.804;4.602;2023-01-04T07:42:08;710.73;;;671.97;;
14698;SDS011;7439;50.804;4.602;2023-01-04T07:44:35;699.40;;;661.77;;
14698;SDS011;7439;50.804;4.602;2023-01-04T07:47:04;699.40;;;661.83;;
14698;SDS011;7439;50.804;4.602;2023-01-04T07:49:32;672.20;;;635.90;;
14698;SDS011;7439;50.804;4.602;2023-01-04T07:51:59;663.83;;;628.27;;
14698;SDS011;7439;50.804;4.602;2023-01-04T07:54:27;663.37;;;628.40;;
14698;SDS011;7439;50.804;4.602;2023-01-04T07:56:54;622.40;;;589.67;;
14698;SDS011;7439;50.804;4.602;2023-01-04T07:59:21;602.67;;;571.57;;
14698;SDS011;7439;50.804;4.602;2023-01-04T08:01:49;591.40;;;560.60;;
14698;SDS011;7439;50.804;4.602;2023-01-04T08:04:20;590.17;;;559.73;;
14698;SDS011;7439;50.804;4.602;2023-01-04T08:06:48;533.00;;;505.40;;
14698;SDS011;7439;50.804;4.602;2023-01-04T08:09:15;534.67;;;507.40;;
14698;SDS011;7439;50.804;4.602;2023-01-04T08:11:43;511.20;;;484.63;;
14698;SDS011;7439;50.804;4.602;2023-01-04T08:14:10;489.83;;;464.50;;
14698;SDS011;7439;50.804;4.602;2023-01-04T08:16:38;461.17;;;437.57;;
14698;SDS011;7439;50.804;4.602;2023-01-04T08:19:07;449.00;;;425.97;;
14698;SDS011;7439;50.804;4.602;2023-01-04T08:21:36;427.57;;;405.83;;
14698;SDS011;7439;50.804;4.602;2023-01-04T08:24:04;401.67;;;381.40;;
14698;SDS011;7439;50.804;4.602;2023-01-04T08:26:31;393.13;;;373.63;;
14698;SDS011;7439;50.804;4.602;2023-01-04T08:28:59;364.57;;;346.17;;
14698;SDS011;7439;50.804;4.602;2023-01-04T08:31:27;356.63;;;338.80;;
14698;SDS011;7439;50.804;4.602;2023-01-04T08:33:55;354.87;;;337.47;;
14698;SDS011;7439;50.804;4.602;2023-01-04T08:36:23;348.33;;;331.40;;
14698;SDS011;7439;50.804;4.602;2023-01-04T08:38:53;319.73;;;304.43;;
14698;SDS011;7439;50.804;4.602;2023-01-04T08:41:21;293.13;;;279.07;;
14698;SDS011;7439;50.804;4.602;2023-01-04T08:43:48;286.17;;;272.53;;
14698;SDS011;7439;50.804;4.602;2023-01-04T08:46:16;257.83;;;245.73;;
14698;SDS011;7439;50.804;4.602;2023-01-04T08:48:43;247.00;;;235.40;;
14698;SDS011;7439;50.804;4.602;2023-01-04T08:51:11;229.03;;;218.37;;
14698;SDS011;7439;50.804;4.602;2023-01-04T08:53:39;214.27;;;204.73;;
14698;SDS011;7439;50.804;4.602;2023-01-04T08:56:08;199.97;;;190.97;;
14698;SDS011;7439;50.804;4.602;2023-01-04T08:58:36;194.30;;;185.63;;
14698;SDS011;7439;50.804;4.602;2023-01-04T09:01:04;186.53;;;178.13;;
14698;SDS011;7439;50.804;4.602;2023-01-04T09:03:32;175.97;;;167.70;;
14698;SDS011;7439;50.804;4.602;2023-01-04T09:06:03;168.90;;;161.50;;
14698;SDS011;7439;50.804;4.602;2023-01-04T09:08:31;142.13;;;135.63;;
14698;SDS011;7439;50.804;4.602;2023-01-04T09:11:02;143.50;;;137.03;;
14698;SDS011;7439;50.804;4.602;2023-01-04T09:13:34;128.87;;;123.20;;
14698;SDS011;7439;50.804;4.602;2023-01-04T09:16:02;116.20;;;111.00;;
14698;SDS011;7439;50.804;4.602;2023-01-04T09:18:31;106.47;;;101.97;;
14698;SDS011;7439;50.804;4.602;2023-01-04T09:20:59;99.10;;;94.90;;
14698;SDS011;7439;50.804;4.602;2023-01-04T09:23:26;90.20;;;86.37;;
14698;SDS011;7439;50.804;4.602;2023-01-04T09:25:54;73.03;;;69.93;;
14698;SDS011;7439;50.804;4.602;2023-01-04T09:28:22;71.10;;;68.00;;
14698;SDS011;7439;50.804;4.602;2023-01-04T09:30:50;62.67;;;59.97;;
14698;SDS011;7439;50.804;4.602;2023-01-04T09:33:18;56.73;;;54.17;;
14698;SDS011;7439;50.804;4.602;2023-01-04T09:35:45;77.87;;;74.60;;
14698;SDS011;7439;50.804;4.602;2023-01-04T09:38:12;69.63;;;66.60;;
14698;SDS011;7439;50.804;4.602;2023-01-04T09:40:44;70.50;;;67.40;;
14698;SDS011;7439;50.804;4.602;2023-01-04T09:43:14;67.17;;;64.13;;
14698;SDS011;7439;50.804;4.602;2023-01-04T09:45:44;65.83;;;62.73;;
14698;SDS011;7439;50.804;4.602;2023-01-04T09:48:13;66.00;;;63.17;;
14698;SDS011;7439;50.804;4.602;2023-01-04T09:50:44;70.63;;;67.70;;
14698;SDS011;7439;50.804;4.602;2023-01-04T09:53:15;144.17;;;137.37;;
14698;SDS011;7439;50.804;4.602;2023-01-04T09:55:46;148.67;;;141.50;;
14698;SDS011;7439;50.804;4.602;2023-01-04T09:58:19;149.00;;;142.20;;
14698;SDS011;7439;50.804;4.602;2023-01-04T10:00:48;149.30;;;142.60;;
14698;SDS011;7439;50.804;4.602;2023-01-04T10:03:19;154.37;;;147.37;;
14698;SDS011;7439;50.804;4.602;2023-01-04T10:05:50;155.67;;;148.67;;
14698;SDS011;7439;50.804;4.602;2023-01-04T10:08:17;143.90;;;137.20;;
14698;SDS011;7439;50.804;4.602;2023-01-04T10:10:48;152.40;;;145.10;;
14698;SDS011;7439;50.804;4.602;2023-01-04T10:13:21;149.77;;;142.80;;
14698;SDS011;7439;50.804;4.602;2023-01-04T10:15:54;138.20;;;131.50;;
14698;SDS011;7439;50.804;4.602;2023-01-04T10:18:27;135.97;;;129.57;;
14698;SDS011;7439;50.804;4.602;2023-01-04T10:21:02;133.77;;;127.30;;
14698;SDS011;7439;50.804;4.602;2023-01-04T10:23:32;139.93;;;133.03;;
14698;SDS011;7439;50.804;4.602;2023-01-04T10:26:03;168.90;;;160.33;;
14698;SDS011;7439;50.804;4.602;2023-01-04T10:28:36;189.57;;;179.90;;
14698;SDS011;7439;50.804;4.602;2023-01-04T10:31:08;207.53;;;197.20;;
14698;SDS011;7439;50.804;4.602;2023-01-04T10:33:41;242.23;;;230.10;;
14698;SDS011;7439;50.804;4.602;2023-01-04T10:36:16;245.43;;;233.00;;
14698;SDS011;7439;50.804;4.602;2023-01-04T10:38:44;306.20;;;291.13;;
14698;SDS011;7439;50.804;4.602;2023-01-04T10:41:12;333.87;;;317.23;;
14698;SDS011;7439;50.804;4.602;2023-01-04T10:43:46;349.90;;;332.57;;
14698;SDS011;7439;50.804;4.602;2023-01-04T10:46:15;421.73;;;400.60;;
14698;SDS011;7439;50.804;4.602;2023-01-04T10:48:47;436.30;;;413.90;;
14698;SDS011;7439;50.804;4.602;2023-01-04T10:51:18;461.10;;;437.43;;
14698;SDS011;7439;50.804;4.602;2023-01-04T10:53:47;470.60;;;446.57;;
14698;SDS011;7439;50.804;4.602;2023-01-04T10:56:17;502.03;;;476.53;;
14698;SDS011;7439;50.804;4.602;2023-01-04T10:58:50;532.57;;;505.80;;
14698;SDS011;7439;50.804;4.602;2023-01-04T11:01:18;569.13;;;540.60;;
14698;SDS011;7439;50.804;4.602;2023-01-04T11:03:50;573.93;;;545.33;;
14698;SDS011;7439;50.804;4.602;2023-01-04T11:06:20;580.60;;;551.70;;
14698;SDS011;7439;50.804;4.602;2023-01-04T11:08:48;695.13;;;660.27;;
14698;SDS011;7439;50.804;4.602;2023-01-04T11:11:17;716.23;;;680.53;;
14698;SDS011;7439;50.804;4.602;2023-01-04T11:13:47;708.60;;;673.03;;
14698;SDS011;7439;50.804;4.602;2023-01-04T11:16:14;713.17;;;677.10;;
14698;SDS011;7439;50.804;4.602;2023-01-04T11:18:42;726.23;;;689.40;;
14698;SDS011;7439;50.804;4.602;2023-01-04T11:21:12;718.07;;;681.67;;
14698;SDS011;7439;50.804;4.602;2023-01-04T11:23:40;702.10;;;666.80;;
14698;SDS011;7439;50.804;4.602;2023-01-04T11:26:08;732.73;;;695.93;;
14698;SDS011;7439;50.804;4.602;2023-01-04T11:28:38;740.67;;;703.43;;
14698;SDS011;7439;50.804;4.602;2023-01-04T11:31:11;753.20;;;714.57;;
14698;SDS011;7439;50.804;4.602;2023-01-04T11:33:54;763.67;;;724.50;;
14698;SDS011;7439;50.804;4.602;2023-01-04T11:36:33;744.43;;;706.23;;
14698;SDS011;7439;50.804;4.602;2023-01-04T11:39:01;749.17;;;710.73;;
14698;SDS011;7439;50.804;4.602;2023-01-04T11:41:28;772.37;;;732.27;;
14698;SDS011;7439;50.804;4.602;2023-01-04T11:43:56;781.17;;;740.73;;
14698;SDS011;7439;50.804;4.602;2023-01-04T11:46:24;779.23;;;738.73;;
14698;SDS011;7439;50.804;4.602;2023-01-04T11:48:53;793.80;;;752.43;;
14698;SDS011;7439;50.804;4.602;2023-01-04T11:51:33;784.53;;;743.47;;
14698;SDS011;7439;50.804;4.602;2023-01-04T11:54:04;807.80;;;765.33;;
14698;SDS011;7439;50.804;4.602;2023-01-04T11:56:32;776.67;;;736.83;;
14698;SDS011;7439;50.804;4.602;2023-01-04T11:59:10;800.17;;;758.57;;
14698;SDS011;7439;50.804;4.602;2023-01-04T12:01:38;793.77;;;752.57;;
14698;SDS011;7439;50.804;4.602;2023-01-04T12:04:10;807.97;;;766.27;;
14698;SDS011;7439;50.804;4.602;2023-01-04T12:06:40;817.70;;;775.23;;
14698;SDS011;7439;50.804;4.602;2023-01-04T12:09:11;827.53;;;784.80;;
14698;SDS011;7439;50.804;4.602;2023-01-04T12:11:40;822.83;;;780.20;;
14698;SDS011;7439;50.804;4.602;2023-01-04T12:14:12;815.40;;;773.43;;
14698;SDS011;7439;50.804;4.602;2023-01-04T12:16:45;832.07;;;788.40;;
14698;SDS011;7439;50.804;4.602;2023-01-04T12:19:14;827.60;;;784.10;;
14698;SDS011;7439;50.804;4.602;2023-01-04T12:21:46;818.27;;;775.07;;
14698;SDS011;7439;50.804;4.602;2023-01-04T12:24:15;775.47;;;736.03;;
14698;SDS011;7439;50.804;4.602;2023-01-04T12:26:43;798.00;;;756.90;;
14698;SDS011;7439;50.804;4.602;2023-01-04T12:34:41;806.83;;;765.17;;
14698;SDS011;7439;50.804;4.602;2023-01-04T12:37:13;801.03;;;760.23;;
14698;SDS011;7439;50.804;4.602;2023-01-04T12:39:58;792.30;;;751.90;;
14698;SDS011;7439;50.804;4.602;2023-01-04T12:42:25;795.17;;;754.60;;
14698;SDS011;7439;50.804;4.602;2023-01-04T12:45:09;776.43;;;737.90;;
14698;SDS011;7439;50.804;4.602;2023-01-04T12:47:40;806.77;;;765.23;;
14698;SDS011;7439;50.804;4.602;2023-01-04T12:50:25;810.47;;;768.67;;
14698;SDS011;7439;50.804;4.602;2023-01-04T12:52:57;800.43;;;758.93;;
14698;SDS011;7439;50.804;4.602;2023-01-04T13:03:42;779.23;;;740.10;;
14698;SDS011;7439;50.804;4.602;2023-01-04T13:06:12;786.10;;;746.20;;
14698;SDS011;7439;50.804;4.602;2023-01-04T13:08:41;779.93;;;740.33;;
14698;SDS011;7439;50.804;4.602;2023-01-04T13:11:17;786.67;;;747.07;;
14698;SDS011;7439;50.804;4.602;2023-01-04T13:13:46;778.83;;;739.50;;
14698;SDS011;7439;50.804;4.602;2023-01-04T13:16:18;781.30;;;741.90;;
14698;SDS011;7439;50.804;4.602;2023-01-04T13:18:46;772.77;;;733.50;;
14698;SDS011;7439;50.804;4.602;2023-01-04T13:21:14;758.77;;;720.73;;
14698;SDS011;7439;50.804;4.602;2023-01-04T13:23:47;753.43;;;715.47;;
14698;SDS011;7439;50.804;4.602;2023-01-04T13:29:11;786.97;;;747.50;;
14698;SDS011;7439;50.804;4.602;2023-01-04T13:31:41;794.93;;;754.60;;
14698;SDS011;7439;50.804;4.602;2023-01-04T13:34:14;808.33;;;766.93;;
14698;SDS011;7439;50.804;4.602;2023-01-04T13:36:42;815.43;;;773.40;;
14698;SDS011;7439;50.804;4.602;2023-01-04T13:39:11;837.13;;;793.53;;
14698;SDS011;7439;50.804;4.602;2023-01-04T13:41:39;841.73;;;797.53;;
14698;SDS011;7439;50.804;4.602;2023-01-04T13:44:13;842.33;;;797.53;;
14698;SDS011;7439;50.804;4.602;2023-01-04T13:46:42;858.80;;;812.70;;
14698;SDS011;7439;50.804;4.602;2023-01-04T13:49:10;863.33;;;817.00;;
14698;SDS011;7439;50.804;4.602;2023-01-04T13:51:39;861.77;;;815.00;;
14698;SDS011;7439;50.804;4.602;2023-01-04T13:54:17;866.73;;;819.57;;
14698;SDS011;7439;50.804;4.602;2023-01-04T13:56:45;878.37;;;830.37;;
14698;SDS011;7439;50.804;4.602;2023-01-04T13:59:14;860.60;;;813.47;;
14698;SDS011;7439;50.804;4.602;2023-01-04T14:01:42;841.43;;;795.60;;
14698;SDS011;7439;50.804;4.602;2023-01-04T14:04:13;862.10;;;814.83;;
14698;SDS011;7439;50.804;4.602;2023-01-04T14:06:42;844.70;;;798.27;;
14698;SDS011;7439;50.804;4.602;2023-01-04T14:09:14;874.77;;;825.73;;
14698;SDS011;7439;50.804;4.602;2023-01-04T14:11:45;861.10;;;813.50;;
14698;SDS011;7439;50.804;4.602;2023-01-04T14:14:33;848.77;;;801.77;;
14698;SDS011;7439;50.804;4.602;2023-01-04T14:17:14;853.60;;;805.57;;
14698;SDS011;7439;50.804;4.602;2023-01-04T14:19:46;836.30;;;791.23;;
14698;SDS011;7439;50.804;4.602;2023-01-04T14:22:17;822.60;;;778.67;;
14698;SDS011;7439;50.804;4.602;2023-01-04T14:24:45;810.97;;;767.23;;
14698;SDS011;7439;50.804;4.602;2023-01-04T14:27:30;805.40;;;762.70;;
14698;SDS011;7439;50.804;4.602;2023-01-04T14:29:57;794.60;;;752.70;;
14698;SDS011;7439;50.804;4.602;2023-01-04T14:32:24;796.23;;;754.63;;
14698;SDS011;7439;50.804;4.602;2023-01-04T14:34:52;804.50;;;762.73;;
14698;SDS011;7439;50.804;4.602;2023-01-04T14:37:20;794.90;;;752.73;;
14698;SDS011;7439;50.804;4.602;2023-01-04T14:39:47;778.70;;;737.47;;
14698;SDS011;7439;50.804;4.602;2023-01-04T14:42:22;771.60;;;731.80;;
14698;SDS011;7439;50.804;4.602;2023-01-04T14:44:51;767.40;;;728.63;;
14698;SDS011;7439;50.804;4.602;2023-01-04T14:47:18;767.00;;;727.40;;
14698;SDS011;7439;50.804;4.602;2023-01-04T14:49:46;774.90;;;734.87;;
14698;SDS011;7439;50.804;4.602;2023-01-04T14:52:17;754.23;;;715.50;;
14698;SDS011;7439;50.804;4.602;2023-01-04T14:54:46;759.83;;;721.47;;